Main page
METAR-TAF:

METAR-TAF

Airports :

La Chinita International Airport

Maracaibo, Venezuela

latitude: 10-34N, longitude: 071-44W, elevation: 66 m

METAR: missing

Time: 08:57 (12:57 UTC)

Forecast

The report was made 2 hours and 57 minutes ago, at 10:00 UTC
Forecast valid from 25 at 12 UTC to 26 at 12 UTC
Wind 4 kt from the Southeast
Visibility 10 km or more
Few clouds at a height of 1600 ft
Becoming
from 25 at 12 UTC to 25 at 16 UTC
Wind 5 kt from the South/Southeast
Scattered clouds at a height of 1600 ft

TAF: SVMC 251000Z 2512/2612 14004KT 9999 FEW016 TX32/17Z TN25/08Z BECMG 2512/2516 16005KT SCT016

Weather observations and forecasts of more than 4000 airports (METAR and TAF reports).

The available stations are represented by yellow and red dots on the map.

Hover mouse over dot to see the name of the station.

Then click to see weather observations and forecasts.

To change the map : click on the green buttons with a black cross to zoom in, on the green button with a dash to zoom out, or on the green arrows for adjacent maps.


METAR-TAF: